Durbin, West Virginia
Current Conditions -  °F | °C
As of 9:51 PM on Monday 26 Jan 2015 (Local Time) from KEKN Reporting Station
Haze Haze  
Wind Chill: 15°   Ceiling: 400
Heat Index: 23°   Visibility: 5mi
Dew Point: 23°   Wind: 7mph
Humidity: 100%   Direction: 270°W
Pressure: 29.79"   Gusts: NA
Location:  38.55°N, 79.83°W
Report Text: KEKN 270251Z AUTO 27006KT 5SM UP BR OVC004 M05/M05 A2979 RMK AO2 UPE16B39SNB16E39 SLP114 P0000 60000 T10501050 51010 TSNO
Loading
Personal Weather Stations






























Interactive Weather Map New forecast layout! Learn more

10-Day Weather Forecast

Advertisements
Track Severe Weather on mobile